Wetterdaten: Samstag, 14.11.2015
Datum Zeit Auen-Temp. Temp gefhlt Luftfeuchte Luftdruck Regen Wind Richtung Richtung Taupunkt Windben
14.11.2015 00:00 8,8 C 5,9 C 80 % 1025,9 hPa 0,0 mm 0,0 km/h (0 Bft) W-SW 247 5,5 C 0,0 km/h (0 Bft)
14.11.2015 00:05 8,7 C 5,8 C 80 % 1025,9 hPa 0,0 mm 0,0 km/h (0 Bft) W-SW 247 5,4 C 0,0 km/h (0 Bft)
14.11.2015 00:10 8,5 C 5,7 C 81 % 1025,5 hPa 0,0 mm 0,0 km/h (0 Bft) W-SW 247 5,4 C 0,0 km/h (0 Bft)
14.11.2015 00:15 8,4 C 5,6 C 81 % 1025,5 hPa 0,0 mm 0,0 km/h (0 Bft) W-SW 247 5,3 C 0,0 km/h (0 Bft)
14.11.2015 00:20 8,4 C 5,6 C 81 % 1025,5 hPa 0,0 mm 0,0 km/h (0 Bft) W-SW 247 5,3 C 0,0 km/h (0 Bft)
14.11.2015 00:25 8,5 C 5,7 C 81 % 1025,5 hPa 0,0 mm 0,0 km/h (0 Bft) W-SW 247 5,4 C 0,0 km/h (0 Bft)
14.11.2015 00:30 8,8 C 5,9 C 80 % 1025,6 hPa 0,0 mm 0,0 km/h (0 Bft) W-SW 247 5,5 C 0,0 km/h (0 Bft)
14.11.2015 00:35 8,8 C 5,9 C 80 % 1025,6 hPa 0,0 mm 0,0 km/h (0 Bft) W-SW 247 5,5 C 0,0 km/h (0 Bft)
14.11.2015 00:40 8,9 C 5,9 C 79 % 1025,6 hPa 0,0 mm 0,0 km/h (0 Bft) W-SW 247 5,5 C 0,0 km/h (0 Bft)
14.11.2015 00:45 8,9 C 5,9 C 78 % 1025,6 hPa 0,0 mm 0,0 km/h (0 Bft) W-SW 247 5,3 C 0,0 km/h (0 Bft)
14.11.2015 00:50 9,0 C 6,0 C 77 % 1025,7 hPa 0,0 mm 0,0 km/h (0 Bft) W-SW 247 5,2 C 0,0 km/h (0 Bft)
14.11.2015 00:55 9,1 C 6,1 C 77 % 1025,7 hPa 0,0 mm 0,0 km/h (0 Bft) W-SW 247 5,3 C 0,0 km/h (0 Bft)
14.11.2015 01:00 9,4 C 6,3 C 76 % 1025,7 hPa 0,0 mm 0,0 km/h (0 Bft) W-SW 247 5,4 C 0,0 km/h (0 Bft)
14.11.2015 01:05 9,6 C 6,4 C 75 % 1025,7 hPa 0,0 mm 0,0 km/h (0 Bft) W-SW 247 5,4 C 0,0 km/h (0 Bft)
14.11.2015 01:10 9,8 C 6,5 C 75 % 1025,9 hPa 0,0 mm 0,0 km/h (0 Bft) W-SW 247 5,6 C 0,0 km/h (0 Bft)
14.11.2015 01:15 9,8 C 6,5 C 74 % 1025,9 hPa 0,0 mm 0,0 km/h (0 Bft) W-SW 247 5,4 C 0,0 km/h (0 Bft)
14.11.2015 01:20 9,9 C 6,6 C 74 % 1025,9 hPa 0,0 mm 0,0 km/h (0 Bft) W-SW 247 5,5 C 0,0 km/h (0 Bft)
14.11.2015 01:25 10,1 C 6,7 C 73 % 1025,9 hPa 0,0 mm 0,0 km/h (0 Bft) W-SW 247 5,5 C 0,0 km/h (0 Bft)
14.11.2015 01:30 10,2 C 6,8 C 72 % 1026,5 hPa 0,0 mm 0,0 km/h (0 Bft) W-SW 247 5,4 C 0,0 km/h (0 Bft)
14.11.2015 01:35 9,6 C 6,4 C 75 % 1026,5 hPa 0,0 mm 0,0 km/h (0 Bft) W-SW 247 5,4 C 0,0 km/h (0 Bft)
14.11.2015 01:40 9,2 C 6,1 C 77 % 1026,5 hPa 0,0 mm 0,0 km/h (0 Bft) W-SW 247 5,4 C 0,0 km/h (0 Bft)
14.11.2015 01:45 9,2 C 6,1 C 77 % 1026,5 hPa 0,0 mm 0,0 km/h (0 Bft) W-SW 247 5,4 C 0,0 km/h (0 Bft)
14.11.2015 01:50 9,4 C 6,3 C 76 % 1026,7 hPa 0,0 mm 0,0 km/h (0 Bft) W-SW 247 5,4 C 0,0 km/h (0 Bft)
14.11.2015 01:55 9,4 C 6,3 C 76 % 1026,7 hPa 0,0 mm 0,0 km/h (0 Bft) W-SW 247 5,4 C 0,0 km/h (0 Bft)
14.11.2015 02:00 9,2 C 6,1 C 77 % 1026,7 hPa 0,0 mm 0,0 km/h (0 Bft) W-SW 247 5,4 C 0,0 km/h (0 Bft)
14.11.2015 02:05 9,0 C 6,0 C 77 % 1026,7 hPa 0,0 mm 0,0 km/h (0 Bft) W-SW 247 5,2 C 0,0 km/h (0 Bft)
14.11.2015 02:10 8,8 C 5,9 C 79 % 1026,8 hPa 0,0 mm 0,0 km/h (0 Bft) W-SW 247 5,4 C 0,0 km/h (0 Bft)
14.11.2015 02:15 8,7 C 5,8 C 79 % 1026,8 hPa 0,0 mm 0,0 km/h (0 Bft) W-SW 247 5,3 C 0,0 km/h (0 Bft)
14.11.2015 02:20 8,6 C 5,7 C 80 % 1026,8 hPa 0,0 mm 0,0 km/h (0 Bft) W-SW 247 5,3 C 0,0 km/h (0 Bft)
14.11.2015 02:25 8,5 C 5,7 C 80 % 1026,8 hPa 0,0 mm 0,0 km/h (0 Bft) W-SW 247 5,3 C 0,0 km/h (0 Bft)
14.11.2015 02:30 8,6 C 5,7 C 80 % 1026,9 hPa 0,0 mm 0,0 km/h (0 Bft) W-SW 247 5,3 C 0,0 km/h (0 Bft)
14.11.2015 02:35 8,6 C 5,7 C 80 % 1026,9 hPa 0,0 mm 0,0 km/h (0 Bft) W-SW 247 5,3 C 0,0 km/h (0 Bft)
14.11.2015 02:40 8,5 C 5,7 C 80 % 1026,9 hPa 0,0 mm 0,0 km/h (0 Bft) W-SW 247 5,3 C 0,0 km/h (0 Bft)
14.11.2015 02:45 8,5 C 5,7 C 80 % 1026,9 hPa 0,0 mm 0,0 km/h (0 Bft) W-SW 247 5,3 C 0,0 km/h (0 Bft)
14.11.2015 02:48 8,6 C 5,7 C 79 % 1027,4 hPa 0,0 mm 0,0 km/h (0 Bft) W-SW 247 5,2 C 0,0 km/h (0 Bft)
14.11.2015 02:50 8,6 C 5,7 C 79 % 1027,4 hPa 0,0 mm 0,0 km/h (0 Bft) W-SW 247 5,2 C 0,0 km/h (0 Bft)
14.11.2015 02:55 8,6 C 5,7 C 79 % 1027,4 hPa 0,0 mm 0,0 km/h (0 Bft) W-SW 247 5,2 C 0,0 km/h (0 Bft)
14.11.2015 03:00 8,5 C 5,7 C 79 % 1027,4 hPa 0,0 mm 0,0 km/h (0 Bft) W-SW 247 5,1 C 0,0 km/h (0 Bft)
14.11.2015 03:05 8,5 C 5,7 C 79 % 1027,4 hPa 0,0 mm 0,0 km/h (0 Bft) W-SW 247 5,1 C 0,0 km/h (0 Bft)
14.11.2015 03:10 8,3 C 5,5 C 80 % 1027,0 hPa 0,0 mm 0,0 km/h (0 Bft) W-SW 247 5,1 C 0,0 km/h (0 Bft)
14.11.2015 03:15 8,2 C 5,5 C 80 % 1027,0 hPa 0,0 mm 0,0 km/h (0 Bft) W-SW 247 5,0 C 0,0 km/h (0 Bft)
14.11.2015 03:20 8,1 C 5,4 C 82 % 1027,0 hPa 0,0 mm 0,0 km/h (0 Bft) W-SW 247 5,2 C 0,0 km/h (0 Bft)
14.11.2015 03:25 8,1 C 5,4 C 83 % 1027,0 hPa 0,0 mm 0,0 km/h (0 Bft) W-SW 247 5,4 C 0,0 km/h (0 Bft)
14.11.2015 03:30 7,9 C 5,3 C 84 % 1027,4 hPa 0,7 mm 0,0 km/h (0 Bft) W-SW 247 5,4 C 0,0 km/h (0 Bft)
14.11.2015 03:35 7,9 C 5,3 C 84 % 1027,4 hPa 0,0 mm 0,0 km/h (0 Bft) W-SW 247 5,4 C 0,0 km/h (0 Bft)
14.11.2015 03:40 7,9 C 5,3 C 85 % 1027,4 hPa 0,0 mm 0,0 km/h (0 Bft) W-SW 247 5,5 C 0,0 km/h (0 Bft)
14.11.2015 03:45 7,9 C 5,3 C 85 % 1027,4 hPa 0,0 mm 0,0 km/h (0 Bft) W-SW 247 5,5 C 0,0 km/h (0 Bft)
14.11.2015 03:50 7,9 C 5,3 C 85 % 1027,3 hPa 0,0 mm 0,0 km/h (0 Bft) W-SW 247 5,5 C 0,0 km/h (0 Bft)
14.11.2015 03:55 7,9 C 5,3 C 84 % 1027,3 hPa 0,0 mm 0,0 km/h (0 Bft) W-SW 247 5,4 C 0,0 km/h (0 Bft)
14.11.2015 04:00 7,9 C 5,3 C 84 % 1027,3 hPa 0,0 mm 0,0 km/h (0 Bft) W-SW 247 5,4 C 0,0 km/h (0 Bft)
14.11.2015 04:05 7,9 C 5,3 C 84 % 1027,3 hPa 0,0 mm 0,0 km/h (0 Bft) W-SW 247 5,4 C 0,0 km/h (0 Bft)
14.11.2015 04:10 8,0 C 5,3 C 84 % 1027,5 hPa 0,0 mm 0,0 km/h (0 Bft) W-SW 247 5,5 C 0,0 km/h (0 Bft)
14.11.2015 04:15 8,1 C 5,4 C 83 % 1027,5 hPa 0,0 mm 0,0 km/h (0 Bft) W-SW 247 5,4 C 0,0 km/h (0 Bft)
14.11.2015 04:20 8,1 C 5,4 C 82 % 1027,5 hPa 0,0 mm 0,0 km/h (0 Bft) W-SW 247 5,2 C 0,0 km/h (0 Bft)
14.11.2015 04:25 8,1 C 5,4 C 81 % 1027,5 hPa 0,0 mm 0,0 km/h (0 Bft) W-SW 247 5,0 C 0,0 km/h (0 Bft)
14.11.2015 04:30 8,2 C 5,5 C 80 % 1027,4 hPa 0,0 mm 0,0 km/h (0 Bft) W-SW 247 5,0 C 0,0 km/h (0 Bft)
14.11.2015 04:35 8,2 C 5,5 C 80 % 1027,4 hPa 0,0 mm 0,0 km/h (0 Bft) W-SW 247 5,0 C 0,0 km/h (0 Bft)
14.11.2015 04:40 8,2 C 5,5 C 79 % 1027,4 hPa 0,0 mm 0,0 km/h (0 Bft) W-SW 247 4,8 C 0,0 km/h (0 Bft)
14.11.2015 04:45 8,2 C 5,5 C 79 % 1027,4 hPa 0,0 mm 0,0 km/h (0 Bft) W-SW 247 4,8 C 0,0 km/h (0 Bft)
14.11.2015 04:50 8,3 C 5,5 C 79 % 1027,6 hPa 0,0 mm 0,0 km/h (0 Bft) W-SW 247 4,9 C 0,0 km/h (0 Bft)
14.11.2015 04:55 8,2 C 5,5 C 78 % 1027,6 hPa 0,0 mm 0,0 km/h (0 Bft) W-SW 247 4,6 C 0,0 km/h (0 Bft)
14.11.2015 05:00 8,1 C 5,4 C 78 % 1027,6 hPa 0,0 mm 0,0 km/h (0 Bft) W-SW 247 4,5 C 0,0 km/h (0 Bft)
14.11.2015 05:05 8,2 C 5,5 C 78 % 1027,6 hPa 0,0 mm 0,0 km/h (0 Bft) W-SW 247 4,6 C 0,0 km/h (0 Bft)
14.11.2015 05:10 8,1 C 5,4 C 78 % 1027,6 hPa 0,0 mm 0,0 km/h (0 Bft) W-SW 247 4,5 C 0,0 km/h (0 Bft)
14.11.2015 05:15 8,1 C 5,4 C 78 % 1027,6 hPa 0,0 mm 0,0 km/h (0 Bft) W-SW 247 4,5 C 0,0 km/h (0 Bft)
14.11.2015 05:20 7,9 C 5,3 C 78 % 1027,6 hPa 0,0 mm 0,0 km/h (0 Bft) W-SW 247 4,3 C 0,0 km/h (0 Bft)
14.11.2015 05:25 7,9 C 5,3 C 78 % 1027,6 hPa 0,0 mm 0,0 km/h (0 Bft) W-SW 247 4,3 C 0,0 km/h (0 Bft)
14.11.2015 05:30 7,9 C 5,3 C 77 % 1027,6 hPa 0,0 mm 0,0 km/h (0 Bft) W-SW 247 4,1 C 0,0 km/h (0 Bft)
14.11.2015 05:35 7,7 C 5,1 C 77 % 1027,6 hPa 0,0 mm 0,0 km/h (0 Bft) W-SW 247 3,9 C 0,0 km/h (0 Bft)
14.11.2015 05:40 7,7 C 5,1 C 78 % 1027,6 hPa 0,0 mm 0,0 km/h (0 Bft) W-SW 247 4,1 C 0,0 km/h (0 Bft)
14.11.2015 05:45 7,6 C 5,1 C 78 % 1027,6 hPa 0,0 mm 0,0 km/h (0 Bft) W-SW 247 4,0 C 0,0 km/h (0 Bft)
14.11.2015 05:50 7,6 C 5,1 C 78 % 1027,2 hPa 0,0 mm 0,0 km/h (0 Bft) W-SW 247 4,0 C 0,0 km/h (0 Bft)
14.11.2015 05:55 7,6 C 5,1 C 78 % 1027,2 hPa 0,0 mm 0,0 km/h (0 Bft) W-SW 247 4,0 C 0,0 km/h (0 Bft)
14.11.2015 06:00 7,8 C 5,2 C 77 % 1027,2 hPa 0,0 mm 0,0 km/h (0 Bft) W-SW 247 4,0 C 0,0 km/h (0 Bft)
14.11.2015 06:05 7,8 C 5,2 C 77 % 1027,2 hPa 0,0 mm 0,0 km/h (0 Bft) W-SW 247 4,0 C 0,0 km/h (0 Bft)
14.11.2015 06:10 7,8 C 5,2 C 77 % 1027,3 hPa 0,0 mm 0,0 km/h (0 Bft) W-SW 247 4,0 C 0,0 km/h (0 Bft)
14.11.2015 06:15 7,8 C 5,2 C 76 % 1027,3 hPa 0,0 mm 0,0 km/h (0 Bft) W-SW 247 3,8 C 0,0 km/h (0 Bft)
14.11.2015 06:20 7,9 C 5,3 C 76 % 1027,3 hPa 0,0 mm 0,0 km/h (0 Bft) W-SW 247 3,9 C 0,0 km/h (0 Bft)
14.11.2015 06:25 7,9 C 5,3 C 76 % 1027,3 hPa 0,0 mm 0,0 km/h (0 Bft) W-SW 247 3,9 C 0,0 km/h (0 Bft)
14.11.2015 06:30 8,0 C 5,3 C 74 % 1027,9 hPa 0,0 mm 0,0 km/h (0 Bft) W-SW 247 3,7 C 0,0 km/h (0 Bft)
14.11.2015 06:35 8,1 C 5,4 C 74 % 1027,9 hPa 0,0 mm 0,0 km/h (0 Bft) W-SW 247 3,8 C 0,0 km/h (0 Bft)
14.11.2015 06:40 8,0 C 5,3 C 74 % 1027,9 hPa 0,0 mm 0,0 km/h (0 Bft) W-SW 247 3,7 C 0,0 km/h (0 Bft)
14.11.2015 06:45 8,1 C 5,4 C 73 % 1027,9 hPa 0,0 mm 0,0 km/h (0 Bft) W-SW 247 3,6 C 0,0 km/h (0 Bft)
14.11.2015 06:50 8,0 C 5,3 C 73 % 1027,8 hPa 0,0 mm 0,0 km/h (0 Bft) W-SW 247 3,5 C 0,0 km/h (0 Bft)
14.11.2015 06:55 8,0 C 5,3 C 73 % 1027,8 hPa 0,0 mm 0,0 km/h (0 Bft) W-SW 247 3,5 C 0,0 km/h (0 Bft)
14.11.2015 07:00 7,9 C 5,3 C 73 % 1027,8 hPa 0,0 mm 0,0 km/h (0 Bft) W-SW 247 3,4 C 0,0 km/h (0 Bft)
14.11.2015 07:05 8,0 C 5,3 C 73 % 1027,8 hPa 0,0 mm 0,0 km/h (0 Bft) W-SW 247 3,5 C 0,0 km/h (0 Bft)
14.11.2015 07:10 7,9 C 5,3 C 73 % 1027,8 hPa 0,0 mm 0,0 km/h (0 Bft) W-SW 247 3,4 C 0,0 km/h (0 Bft)
14.11.2015 07:15 7,8 C 5,2 C 73 % 1027,8 hPa 0,0 mm 0,0 km/h (0 Bft) W-SW 247 3,3 C 0,0 km/h (0 Bft)
14.11.2015 07:20 7,8 C 5,2 C 73 % 1027,8 hPa 0,0 mm 0,0 km/h (0 Bft) W-SW 247 3,3 C 0,0 km/h (0 Bft)
14.11.2015 07:25 7,7 C 5,1 C 73 % 1027,8 hPa 0,0 mm 0,0 km/h (0 Bft) W-SW 247 3,2 C 0,0 km/h (0 Bft)
14.11.2015 07:30 7,7 C 5,1 C 73 % 1027,8 hPa 0,0 mm 0,0 km/h (0 Bft) W-SW 247 3,2 C 0,0 km/h (0 Bft)
14.11.2015 07:35 7,6 C 5,1 C 73 % 1027,8 hPa 0,0 mm 0,0 km/h (0 Bft) W-SW 247 3,1 C 0,0 km/h (0 Bft)
14.11.2015 07:40 7,8 C 5,2 C 73 % 1027,8 hPa 0,0 mm 0,0 km/h (0 Bft) W-SW 247 3,3 C 0,0 km/h (0 Bft)
14.11.2015 07:45 7,8 C 5,2 C 72 % 1027,8 hPa 0,0 mm 0,0 km/h (0 Bft) W-SW 247 3,1 C 0,0 km/h (0 Bft)
14.11.2015 07:50 7,7 C 5,1 C 72 % 1028,1 hPa 0,0 mm 0,0 km/h (0 Bft) W-SW 247 3,0 C 0,0 km/h (0 Bft)
14.11.2015 07:55 7,7 C 5,1 C 72 % 1028,1 hPa 0,0 mm 0,0 km/h (0 Bft) W-SW 247 3,0 C 0,0 km/h (0 Bft)
14.11.2015 08:00 7,7 C 5,1 C 72 % 1028,1 hPa 0,0 mm 0,0 km/h (0 Bft) W-SW 247 3,0 C 0,0 km/h (0 Bft)
14.11.2015 08:05 7,7 C 5,1 C 72 % 1028,1 hPa 0,0 mm 0,0 km/h (0 Bft) W-SW 247 3,0 C 0,0 km/h (0 Bft)
14.11.2015 08:10 7,7 C 5,1 C 72 % 1028,2 hPa 0,0 mm 0,0 km/h (0 Bft) W-SW 247 3,0 C 0,0 km/h (0 Bft)
14.11.2015 08:15 7,8 C 5,2 C 72 % 1028,2 hPa 0,0 mm 0,0 km/h (0 Bft) W-SW 247 3,1 C 0,0 km/h (0 Bft)
14.11.2015 08:20 7,8 C 5,2 C 72 % 1028,2 hPa 0,0 mm 0,0 km/h (0 Bft) W-SW 247 3,1 C 0,0 km/h (0 Bft)
14.11.2015 08:25 7,8 C 5,3 C 72 % 1028,2 hPa 0,0 mm 0,0 km/h (0 Bft) W-SW 247 3,1 C 0,0 km/h (0 Bft)
14.11.2015 08:30 7,8 C 5,2 C 72 % 1028,1 hPa 0,0 mm 0,0 km/h (0 Bft) W-SW 247 3,1 C 0,0 km/h (0 Bft)
14.11.2015 08:35 7,7 C 5,1 C 72 % 1028,1 hPa 0,0 mm 0,0 km/h (0 Bft) W-SW 247 3,0 C 0,0 km/h (0 Bft)
14.11.2015 08:40 7,6 C 5,1 C 72 % 1028,1 hPa 0,0 mm 0,0 km/h (0 Bft) W-SW 247 2,9 C 0,0 km/h (0 Bft)
14.11.2015 08:45 7,6 C 5,1 C 71 % 1028,1 hPa 0,0 mm 0,0 km/h (0 Bft) W-SW 247 2,7 C 0,0 km/h (0 Bft)
14.11.2015 08:48 7,6 C 5,1 C 71 % 1028,1 hPa 0,0 mm 0,0 km/h (0 Bft) W-SW 247 2,7 C 0,0 km/h (0 Bft)
14.11.2015 08:51 7,6 C 5,1 C 71 % 1028,1 hPa 0,0 mm 0,0 km/h (0 Bft) W-SW 247 2,7 C 0,0 km/h (0 Bft)
14.11.2015 08:55 7,6 C 5,1 C 71 % 1028,1 hPa 0,0 mm 0,0 km/h (0 Bft) W-SW 247 2,7 C 0,0 km/h (0 Bft)
14.11.2015 09:00 7,7 C 5,2 C 71 % 1028,1 hPa 0,0 mm 0,0 km/h (0 Bft) W-SW 247 2,8 C 0,0 km/h (0 Bft)
14.11.2015 09:05 7,8 C 5,2 C 71 % 1028,1 hPa 0,0 mm 0,0 km/h (0 Bft) W-SW 247 2,9 C 0,0 km/h (0 Bft)
14.11.2015 09:10 7,8 C 5,2 C 70 % 1028,1 hPa 0,0 mm 0,0 km/h (0 Bft) W-SW 247 2,7 C 0,0 km/h (0 Bft)
14.11.2015 09:15 7,8 C 5,2 C 70 % 1028,1 hPa 0,0 mm 0,0 km/h (0 Bft) W-SW 247 2,7 C 0,0 km/h (0 Bft)
14.11.2015 09:20 7,8 C 5,3 C 70 % 1028,1 hPa 0,0 mm 0,0 km/h (0 Bft) W-SW 247 2,7 C 0,0 km/h (0 Bft)
14.11.2015 09:25 7,8 C 5,3 C 70 % 1028,1 hPa 0,0 mm 0,0 km/h (0 Bft) W-SW 247 2,7 C 0,0 km/h (0 Bft)
14.11.2015 09:30 7,9 C 5,3 C 70 % 1028,1 hPa 0,0 mm 0,0 km/h (0 Bft) W-SW 247 2,8 C 0,0 km/h (0 Bft)
14.11.2015 09:35 7,8 C 5,3 C 70 % 1028,1 hPa 0,0 mm 0,0 km/h (0 Bft) W-SW 247 2,7 C 0,0 km/h (0 Bft)
14.11.2015 09:40 7,9 C 5,3 C 70 % 1028,1 hPa 0,0 mm 0,0 km/h (0 Bft) W-SW 247 2,8 C 0,0 km/h (0 Bft)
14.11.2015 09:45 8,0 C 5,5 C 69 % 1028,1 hPa 0,0 mm 0,0 km/h (0 Bft) W-SW 247 2,7 C 0,0 km/h (0 Bft)
14.11.2015 09:50 8,0 C 5,5 C 69 % 1028,2 hPa 0,0 mm 0,0 km/h (0 Bft) W-SW 247 2,7 C 0,0 km/h (0 Bft)
14.11.2015 09:55 8,0 C 5,4 C 69 % 1028,2 hPa 0,0 mm 0,0 km/h (0 Bft) W-SW 247 2,7 C 0,0 km/h (0 Bft)
14.11.2015 10:00 8,0 C 5,4 C 68 % 1028,2 hPa 0,0 mm 0,0 km/h (0 Bft) W-SW 247 2,5 C 0,0 km/h (0 Bft)
14.11.2015 10:05 8,0 C 5,4 C 69 % 1028,2 hPa 0,0 mm 0,0 km/h (0 Bft) W-SW 247 2,7 C 0,0 km/h (0 Bft)
14.11.2015 10:10 8,0 C 5,4 C 69 % 1028,2 hPa 0,0 mm 0,0 km/h (0 Bft) W-SW 247 2,7 C 0,0 km/h (0 Bft)
14.11.2015 10:15 8,0 C 5,4 C 68 % 1028,2 hPa 0,0 mm 0,0 km/h (0 Bft) W-SW 247 2,5 C 0,0 km/h (0 Bft)
14.11.2015 10:20 8,1 C 5,5 C 68 % 1028,2 hPa 0,0 mm 0,0 km/h (0 Bft) W-SW 247 2,6 C 0,0 km/h (0 Bft)
14.11.2015 10:25 8,2 C 5,7 C 69 % 1028,2 hPa 0,0 mm 0,0 km/h (0 Bft) W-SW 247 2,9 C 0,0 km/h (0 Bft)
14.11.2015 10:30 8,2 C 5,7 C 68 % 1028,4 hPa 0,0 mm 0,0 km/h (0 Bft) W-SW 247 2,7 C 0,0 km/h (0 Bft)
14.11.2015 10:35 8,2 C 5,6 C 68 % 1028,4 hPa 0,0 mm 0,0 km/h (0 Bft) W-SW 247 2,7 C 0,0 km/h (0 Bft)
14.11.2015 10:40 8,2 C 5,6 C 68 % 1028,4 hPa 0,0 mm 0,0 km/h (0 Bft) W-SW 247 2,7 C 0,0 km/h (0 Bft)
14.11.2015 10:45 8,2 C 5,7 C 68 % 1028,4 hPa 0,0 mm 0,0 km/h (0 Bft) W-SW 247 2,7 C 0,0 km/h (0 Bft)
14.11.2015 10:50 8,3 C 5,9 C 68 % 1028,4 hPa 0,0 mm 0,0 km/h (0 Bft) W-SW 247 2,7 C 0,0 km/h (0 Bft)
14.11.2015 10:55 8,4 C 5,9 C 68 % 1028,4 hPa 0,0 mm 0,0 km/h (0 Bft) W-SW 247 2,8 C 0,0 km/h (0 Bft)
14.11.2015 11:00 8,6 C 5,9 C 68 % 1028,4 hPa 0,0 mm 0,0 km/h (0 Bft) W-SW 247 3,0 C 0,0 km/h (0 Bft)
14.11.2015 11:05 8,4 C 5,8 C 68 % 1028,4 hPa 0,0 mm 0,0 km/h (0 Bft) W-SW 247 2,8 C 0,0 km/h (0 Bft)
14.11.2015 11:10 8,6 C 6,1 C 68 % 1028,4 hPa 0,0 mm 0,0 km/h (0 Bft) W-SW 247 3,0 C 0,0 km/h (0 Bft)
14.11.2015 11:15 8,6 C 6,0 C 68 % 1028,4 hPa 0,0 mm 0,0 km/h (0 Bft) W-SW 247 3,0 C 0,0 km/h (0 Bft)
14.11.2015 11:20 8,6 C 6,0 C 68 % 1028,4 hPa 0,0 mm 0,0 km/h (0 Bft) W-SW 247 3,0 C 0,0 km/h (0 Bft)
14.11.2015 11:25 8,6 C 5,8 C 68 % 1028,4 hPa 0,0 mm 0,0 km/h (0 Bft) W-SW 247 3,0 C 0,0 km/h (0 Bft)
14.11.2015 11:30 8,4 C 5,8 C 68 % 1028,4 hPa 0,0 mm 0,0 km/h (0 Bft) W-SW 247 2,8 C 0,0 km/h (0 Bft)
14.11.2015 11:35 8,4 C 5,8 C 68 % 1028,4 hPa 0,0 mm 0,0 km/h (0 Bft) W-SW 247 2,8 C 0,0 km/h (0 Bft)
14.11.2015 11:40 8,3 C 5,7 C 68 % 1028,4 hPa 0,0 mm 0,0 km/h (0 Bft) W-SW 247 2,7 C 0,0 km/h (0 Bft)
14.11.2015 11:45 8,4 C 5,8 C 68 % 1028,4 hPa 0,0 mm 0,0 km/h (0 Bft) W-SW 247 2,8 C 0,0 km/h (0 Bft)
14.11.2015 11:50 8,4 C 5,9 C 68 % 1028,2 hPa 0,0 mm 0,0 km/h (0 Bft) W-SW 247 2,8 C 0,0 km/h (0 Bft)
14.11.2015 11:55 8,4 C 5,9 C 68 % 1028,2 hPa 0,0 mm 0,0 km/h (0 Bft) W-SW 247 2,8 C 0,0 km/h (0 Bft)
14.11.2015 12:00 8,4 C 5,9 C 67 % 1028,2 hPa 0,0 mm 0,0 km/h (0 Bft) W-SW 247 2,6 C 0,0 km/h (0 Bft)
14.11.2015 12:05 8,6 C 5,9 C 67 % 1028,2 hPa 0,0 mm 0,0 km/h (0 Bft) W-SW 247 2,8 C 0,0 km/h (0 Bft)
14.11.2015 12:10 8,4 C 5,7 C 67 % 1028,0 hPa 0,0 mm 0,0 km/h (0 Bft) W-SW 247 2,6 C 0,0 km/h (0 Bft)
14.11.2015 12:15 8,4 C 5,8 C 67 % 1028,0 hPa 0,0 mm 0,0 km/h (0 Bft) W-SW 247 2,6 C 0,0 km/h (0 Bft)
14.11.2015 12:20 8,3 C 5,7 C 67 % 1028,0 hPa 0,0 mm 0,0 km/h (0 Bft) W-SW 247 2,5 C 0,0 km/h (0 Bft)
14.11.2015 12:25 8,4 C 5,9 C 67 % 1028,0 hPa 0,0 mm 0,0 km/h (0 Bft) W-SW 247 2,6 C 0,0 km/h (0 Bft)
14.11.2015 12:30 8,4 C 5,9 C 67 % 1027,8 hPa 0,0 mm 0,0 km/h (0 Bft) W-SW 247 2,6 C 0,0 km/h (0 Bft)
14.11.2015 12:35 8,4 C 5,7 C 66 % 1027,8 hPa 0,0 mm 0,0 km/h (0 Bft) W-SW 247 2,4 C 0,0 km/h (0 Bft)
14.11.2015 12:40 8,3 C 5,7 C 66 % 1027,8 hPa 0,0 mm 0,0 km/h (0 Bft) W-SW 247 2,3 C 0,0 km/h (0 Bft)
14.11.2015 12:45 8,3 C 5,7 C 66 % 1027,8 hPa 0,0 mm 0,0 km/h (0 Bft) W-SW 247 2,3 C 0,0 km/h (0 Bft)
14.11.2015 12:50 8,2 C 5,6 C 66 % 1027,7 hPa 0,0 mm 0,0 km/h (0 Bft) W-SW 247 2,2 C 0,0 km/h (0 Bft)
14.11.2015 12:55 8,2 C 5,7 C 66 % 1027,7 hPa 0,0 mm 0,0 km/h (0 Bft) W-SW 247 2,2 C 0,0 km/h (0 Bft)
14.11.2015 13:00 8,2 C 5,6 C 66 % 1027,7 hPa 0,0 mm 0,0 km/h (0 Bft) W-SW 247 2,2 C 0,0 km/h (0 Bft)
14.11.2015 13:05 8,1 C 5,5 C 66 % 1027,7 hPa 0,0 mm 0,0 km/h (0 Bft) W-SW 247 2,1 C 0,0 km/h (0 Bft)
14.11.2015 13:10 8,1 C 5,5 C 66 % 1027,4 hPa 0,0 mm 0,0 km/h (0 Bft) W-SW 247 2,1 C 0,0 km/h (0 Bft)
14.11.2015 13:15 8,1 C 5,5 C 66 % 1027,4 hPa 0,0 mm 0,0 km/h (0 Bft) W-SW 247 2,1 C 0,0 km/h (0 Bft)
14.11.2015 13:20 8,2 C 5,6 C 66 % 1027,4 hPa 0,0 mm 0,0 km/h (0 Bft) W-SW 247 2,2 C 0,0 km/h (0 Bft)
14.11.2015 13:25 8,3 C 5,7 C 66 % 1027,4 hPa 0,0 mm 0,0 km/h (0 Bft) W-SW 247 2,3 C 0,0 km/h (0 Bft)
14.11.2015 13:30 8,3 C 5,7 C 66 % 1027,4 hPa 0,0 mm 0,0 km/h (0 Bft) W-SW 247 2,3 C 0,0 km/h (0 Bft)
14.11.2015 13:35 8,2 C 5,5 C 66 % 1027,4 hPa 0,0 mm 0,0 km/h (0 Bft) W-SW 247 2,2 C 0,0 km/h (0 Bft)
14.11.2015 13:40 8,1 C 5,4 C 65 % 1027,4 hPa 0,0 mm 0,0 km/h (0 Bft) W-SW 247 1,9 C 0,0 km/h (0 Bft)
14.11.2015 13:45 8,0 C 5,5 C 65 % 1027,4 hPa 0,0 mm 0,0 km/h (0 Bft) W-SW 247 1,8 C 0,0 km/h (0 Bft)
14.11.2015 13:50 8,0 C 5,4 C 65 % 1026,9 hPa 0,0 mm 0,0 km/h (0 Bft) W-SW 247 1,8 C 0,0 km/h (0 Bft)
14.11.2015 13:55 8,0 C 5,5 C 66 % 1026,9 hPa 0,0 mm 0,0 km/h (0 Bft) W-SW 247 2,0 C 0,0 km/h (0 Bft)
14.11.2015 14:00 8,1 C 5,5 C 66 % 1026,9 hPa 0,0 mm 0,0 km/h (0 Bft) W-SW 247 2,1 C 0,0 km/h (0 Bft)
14.11.2015 14:05 8,1 C 5,5 C 65 % 1026,9 hPa 0,0 mm 0,0 km/h (0 Bft) W-SW 247 1,9 C 0,0 km/h (0 Bft)
14.11.2015 14:10 8,1 C 5,6 C 65 % 1026,9 hPa 0,0 mm 0,0 km/h (0 Bft) W-SW 247 1,9 C 0,0 km/h (0 Bft)
14.11.2015 14:15 8,2 C 5,7 C 65 % 1026,9 hPa 0,0 mm 0,0 km/h (0 Bft) W-SW 247 2,0 C 0,0 km/h (0 Bft)
14.11.2015 14:20 8,4 C 5,7 C 65 % 1026,9 hPa 0,0 mm 0,0 km/h (0 Bft) W-SW 247 2,2 C 0,0 km/h (0 Bft)
14.11.2015 14:25 8,6 C 5,8 C 65 % 1026,9 hPa 0,0 mm 0,0 km/h (0 Bft) W-SW 247 2,4 C 0,0 km/h (0 Bft)
14.11.2015 14:30 8,6 C 5,8 C 65 % 1026,9 hPa 0,0 mm 0,0 km/h (0 Bft) W-SW 247 2,4 C 0,0 km/h (0 Bft)
14.11.2015 14:35 8,6 C 5,8 C 65 % 1026,9 hPa 0,0 mm 0,0 km/h (0 Bft) W-SW 247 2,4 C 0,0 km/h (0 Bft)
14.11.2015 14:40 8,8 C 5,9 C 65 % 1026,9 hPa 0,0 mm 0,0 km/h (0 Bft) W-SW 247 2,6 C 0,0 km/h (0 Bft)
14.11.2015 14:45 8,8 C 5,9 C 64 % 1026,9 hPa 0,0 mm 0,0 km/h (0 Bft) W-SW 247 2,4 C 0,0 km/h (0 Bft)
14.11.2015 14:50 8,6 C 5,7 C 64 % 1026,7 hPa 0,0 mm 0,0 km/h (0 Bft) W-SW 247 2,2 C 0,0 km/h (0 Bft)
14.11.2015 14:52 8,6 C 5,7 C 64 % 1026,7 hPa 0,0 mm 0,0 km/h (0 Bft) W-SW 247 2,2 C 0,0 km/h (0 Bft)
14.11.2015 14:55 8,3 C 5,6 C 64 % 1026,7 hPa 0,0 mm 0,0 km/h (0 Bft) W-SW 247 1,9 C 0,0 km/h (0 Bft)
14.11.2015 15:00 8,1 C 5,5 C 64 % 1026,7 hPa 0,0 mm 0,0 km/h (0 Bft) W-SW 247 1,7 C 0,0 km/h (0 Bft)
14.11.2015 15:05 8,1 C 5,5 C 64 % 1026,7 hPa 0,0 mm 0,0 km/h (0 Bft) W-SW 247 1,7 C 0,0 km/h (0 Bft)
14.11.2015 15:10 8,1 C 5,5 C 65 % 1026,6 hPa 0,0 mm 0,0 km/h (0 Bft) W-SW 247 1,9 C 0,0 km/h (0 Bft)
14.11.2015 15:15 8,0 C 5,5 C 65 % 1026,6 hPa 0,0 mm 0,0 km/h (0 Bft) W-SW 247 1,8 C 0,0 km/h (0 Bft)
14.11.2015 15:20 8,0 C 5,5 C 65 % 1026,6 hPa 0,0 mm 0,0 km/h (0 Bft) W-SW 247 1,8 C 0,0 km/h (0 Bft)
14.11.2015 15:25 8,1 C 5,5 C 65 % 1026,6 hPa 0,0 mm 0,0 km/h (0 Bft) W-SW 247 1,9 C 0,0 km/h (0 Bft)
14.11.2015 15:30 8,1 C 5,5 C 65 % 1026,4 hPa 0,0 mm 0,0 km/h (0 Bft) W-SW 247 1,9 C 0,0 km/h (0 Bft)
14.11.2015 15:35 8,1 C 5,5 C 65 % 1026,4 hPa 0,0 mm 0,0 km/h (0 Bft) W-SW 247 1,9 C 0,0 km/h (0 Bft)
14.11.2015 15:40 8,1 C 5,4 C 65 % 1026,4 hPa 0,0 mm 0,0 km/h (0 Bft) W-SW 247 1,9 C 0,0 km/h (0 Bft)
14.11.2015 15:45 7,9 C 5,3 C 65 % 1026,4 hPa 0,0 mm 0,0 km/h (0 Bft) W-SW 247 1,7 C 0,0 km/h (0 Bft)
14.11.2015 15:50 7,8 C 5,2 C 66 % 1026,2 hPa 0,0 mm 0,0 km/h (0 Bft) W-SW 247 1,9 C 0,0 km/h (0 Bft)
14.11.2015 15:55 7,6 C 5,1 C 66 % 1026,2 hPa 0,0 mm 0,0 km/h (0 Bft) W-SW 247 1,7 C 0,0 km/h (0 Bft)
14.11.2015 16:00 7,3 C 4,9 C 66 % 1026,2 hPa 0,0 mm 0,0 km/h (0 Bft) W-SW 247 1,4 C 0,0 km/h (0 Bft)
14.11.2015 16:05 7,3 C 4,9 C 66 % 1026,2 hPa 0,0 mm 0,0 km/h (0 Bft) W-SW 247 1,4 C 0,0 km/h (0 Bft)
14.11.2015 16:10 7,0 C 4,7 C 66 % 1026,2 hPa 0,0 mm 0,0 km/h (0 Bft) W-SW 247 1,1 C 0,0 km/h (0 Bft)
14.11.2015 16:15 6,7 C 4,5 C 67 % 1026,2 hPa 0,0 mm 0,0 km/h (0 Bft) W-SW 247 1,0 C 0,0 km/h (0 Bft)
14.11.2015 16:20 6,4 C 4,3 C 68 % 1026,2 hPa 0,0 mm 0,0 km/h (0 Bft) W-SW 247 0,9 C 0,0 km/h (0 Bft)
14.11.2015 16:25 6,3 C 4,2 C 69 % 1026,2 hPa 0,0 mm 0,0 km/h (0 Bft) W-SW 247 1,0 C 0,0 km/h (0 Bft)
14.11.2015 16:30 6,2 C 4,1 C 69 % 1026,2 hPa 0,0 mm 0,0 km/h (0 Bft) W-SW 247 0,9 C 0,0 km/h (0 Bft)
14.11.2015 16:35 6,3 C 4,2 C 70 % 1026,2 hPa 0,0 mm 0,0 km/h (0 Bft) W-SW 247 1,2 C 0,0 km/h (0 Bft)
14.11.2015 16:40 6,1 C 4,1 C 70 % 1026,2 hPa 0,0 mm 0,0 km/h (0 Bft) W-SW 247 1,0 C 0,0 km/h (0 Bft)
14.11.2015 16:45 6,0 C 4,0 C 70 % 1026,2 hPa 0,0 mm 0,0 km/h (0 Bft) W-SW 247 1,0 C 0,0 km/h (0 Bft)
14.11.2015 16:50 6,0 C 4,0 C 71 % 1025,9 hPa 0,0 mm 0,0 km/h (0 Bft) W-SW 247 1,1 C 0,0 km/h (0 Bft)
14.11.2015 16:55 5,9 C 3,9 C 73 % 1025,9 hPa 0,0 mm 0,0 km/h (0 Bft) W-SW 247 1,4 C 0,0 km/h (0 Bft)
14.11.2015 17:00 6,0 C 4,0 C 71 % 1025,9 hPa 0,0 mm 0,0 km/h (0 Bft) W-SW 247 1,1 C 0,0 km/h (0 Bft)
14.11.2015 17:05 6,0 C 4,0 C 71 % 1025,9 hPa 0,0 mm 0,0 km/h (0 Bft) W-SW 247 1,1 C 0,0 km/h (0 Bft)
14.11.2015 17:10 6,0 C 4,0 C 71 % 1025,6 hPa 0,0 mm 0,0 km/h (0 Bft) W-SW 247 1,1 C 0,0 km/h (0 Bft)
14.11.2015 17:15 5,9 C 3,9 C 73 % 1025,6 hPa 0,0 mm 0,0 km/h (0 Bft) W-SW 247 1,4 C 0,0 km/h (0 Bft)
14.11.2015 17:20 5,8 C 3,9 C 73 % 1025,6 hPa 0,0 mm 0,0 km/h (0 Bft) W-SW 247 1,3 C 0,0 km/h (0 Bft)
14.11.2015 17:25 5,8 C 3,9 C 74 % 1025,6 hPa 0,0 mm 0,0 km/h (0 Bft) W-SW 247 1,5 C 0,0 km/h (0 Bft)
14.11.2015 17:30 6,0 C 4,0 C 73 % 1025,6 hPa 0,0 mm 0,0 km/h (0 Bft) W-SW 247 1,5 C 0,0 km/h (0 Bft)
14.11.2015 17:35 6,0 C 4,0 C 73 % 1025,6 hPa 0,0 mm 0,0 km/h (0 Bft) W-SW 247 1,5 C 0,0 km/h (0 Bft)
14.11.2015 17:40 6,0 C 4,0 C 73 % 1025,6 hPa 0,0 mm 0,0 km/h (0 Bft) W-SW 247 1,5 C 0,0 km/h (0 Bft)
14.11.2015 17:45 5,9 C 3,9 C 74 % 1025,6 hPa 0,0 mm 0,0 km/h (0 Bft) W-SW 247 1,6 C 0,0 km/h (0 Bft)
14.11.2015 17:50 5,9 C 3,9 C 75 % 1025,6 hPa 0,0 mm 0,0 km/h (0 Bft) W-SW 247 1,8 C 0,0 km/h (0 Bft)
14.11.2015 17:55 5,9 C 3,9 C 75 % 1025,6 hPa 0,0 mm 0,0 km/h (0 Bft) W-SW 247 1,8 C 0,0 km/h (0 Bft)
14.11.2015 18:00 6,0 C 4,0 C 74 % 1025,6 hPa 0,0 mm 0,0 km/h (0 Bft) W-SW 247 1,7 C 0,0 km/h (0 Bft)
14.11.2015 18:05 5,9 C 3,9 C 75 % 1025,6 hPa 0,0 mm 0,0 km/h (0 Bft) W-SW 247 1,8 C 0,0 km/h (0 Bft)
14.11.2015 18:10 5,9 C 3,9 C 76 % 1025,6 hPa 0,0 mm 0,0 km/h (0 Bft) W-SW 247 2,0 C 0,0 km/h (0 Bft)
14.11.2015 18:15 6,0 C 4,0 C 75 % 1025,6 hPa 0,0 mm 0,0 km/h (0 Bft) W-SW 247 1,9 C 0,0 km/h (0 Bft)
14.11.2015 18:20 6,0 C 4,0 C 75 % 1025,6 hPa 0,0 mm 0,0 km/h (0 Bft) W-SW 247 1,9 C 0,0 km/h (0 Bft)
14.11.2015 18:25 5,9 C 3,9 C 76 % 1025,6 hPa 0,0 mm 0,0 km/h (0 Bft) W-SW 247 2,0 C 0,0 km/h (0 Bft)
14.11.2015 18:30 5,9 C 3,9 C 76 % 1025,7 hPa 0,0 mm 0,0 km/h (0 Bft) W-SW 247 2,0 C 0,0 km/h (0 Bft)
14.11.2015 18:35 6,0 C 4,0 C 75 % 1025,7 hPa 0,0 mm 0,0 km/h (0 Bft) W-SW 247 1,9 C 0,0 km/h (0 Bft)
14.11.2015 18:40 5,9 C 3,9 C 76 % 1025,7 hPa 0,0 mm 0,0 km/h (0 Bft) W-SW 247 2,0 C 0,0 km/h (0 Bft)
14.11.2015 18:45 6,0 C 4,0 C 75 % 1025,7 hPa 0,0 mm 0,0 km/h (0 Bft) W-SW 247 1,9 C 0,0 km/h (0 Bft)
14.11.2015 18:50 6,0 C 4,0 C 75 % 1025,4 hPa 0,0 mm 0,0 km/h (0 Bft) W-SW 247 1,9 C 0,0 km/h (0 Bft)
14.11.2015 18:55 6,0 C 4,0 C 75 % 1025,4 hPa 0,0 mm 0,0 km/h (0 Bft) W-SW 247 1,9 C 0,0 km/h (0 Bft)
14.11.2015 19:00 5,9 C 3,9 C 76 % 1025,4 hPa 0,0 mm 0,0 km/h (0 Bft) W-SW 247 2,0 C 0,0 km/h (0 Bft)
14.11.2015 19:05 5,9 C 3,9 C 76 % 1025,4 hPa 0,0 mm 0,0 km/h (0 Bft) W-SW 247 2,0 C 0,0 km/h (0 Bft)
14.11.2015 19:10 6,0 C 4,0 C 75 % 1025,2 hPa 0,0 mm 0,0 km/h (0 Bft) W-SW 247 1,9 C 0,0 km/h (0 Bft)
14.11.2015 19:15 5,9 C 3,9 C 76 % 1025,2 hPa 0,0 mm 0,0 km/h (0 Bft) W-SW 247 2,0 C 0,0 km/h (0 Bft)
14.11.2015 19:20 5,9 C 3,9 C 76 % 1025,2 hPa 0,0 mm 0,0 km/h (0 Bft) W-SW 247 2,0 C 0,0 km/h (0 Bft)
14.11.2015 19:25 5,9 C 3,9 C 76 % 1025,2 hPa 0,0 mm 0,0 km/h (0 Bft) W-SW 247 2,0 C 0,0 km/h (0 Bft)
14.11.2015 19:30 6,0 C 4,0 C 76 % 1024,9 hPa 0,0 mm 0,0 km/h (0 Bft) W-SW 247 2,1 C 0,0 km/h (0 Bft)
14.11.2015 19:35 5,9 C 3,9 C 77 % 1024,9 hPa 0,0 mm 0,0 km/h (0 Bft) W-SW 247 2,2 C 0,0 km/h (0 Bft)
14.11.2015 19:40 5,9 C 3,9 C 77 % 1024,9 hPa 0,0 mm 0,0 km/h (0 Bft) W-SW 247 2,2 C 0,0 km/h (0 Bft)
14.11.2015 19:45 6,0 C 4,0 C 76 % 1024,9 hPa 0,0 mm 0,0 km/h (0 Bft) W-SW 247 2,1 C 0,0 km/h (0 Bft)
14.11.2015 19:50 5,9 C 3,9 C 77 % 1024,8 hPa 0,0 mm 0,0 km/h (0 Bft) W-SW 247 2,2 C 0,0 km/h (0 Bft)
14.11.2015 19:55 5,7 C 3,8 C 77 % 1024,8 hPa 0,0 mm 0,0 km/h (0 Bft) W-SW 247 2,0 C 0,0 km/h (0 Bft)
14.11.2015 20:00 5,5 C 3,7 C 77 % 1024,8 hPa 0,0 mm 0,0 km/h (0 Bft) W-SW 247 1,8 C 0,0 km/h (0 Bft)
14.11.2015 20:05 5,5 C 3,7 C 78 % 1024,8 hPa 0,0 mm 0,0 km/h (0 Bft) W-SW 247 2,0 C 0,0 km/h (0 Bft)
14.11.2015 20:10 5,5 C 3,7 C 78 % 1024,8 hPa 0,0 mm 0,0 km/h (0 Bft) W-SW 247 2,0 C 0,0 km/h (0 Bft)
14.11.2015 20:15 5,4 C 3,6 C 78 % 1024,8 hPa 0,0 mm 0,0 km/h (0 Bft) W-SW 247 1,9 C 0,0 km/h (0 Bft)
14.11.2015 20:20 5,3 C 3,5 C 78 % 1024,8 hPa 0,0 mm 0,0 km/h (0 Bft) W-SW 247 1,8 C 0,0 km/h (0 Bft)
14.11.2015 20:25 5,3 C 3,5 C 78 % 1024,8 hPa 0,0 mm 0,0 km/h (0 Bft) W-SW 247 1,8 C 0,0 km/h (0 Bft)
14.11.2015 20:30 5,3 C 3,5 C 79 % 1024,9 hPa 0,0 mm 0,0 km/h (0 Bft) W-SW 247 2,0 C 0,0 km/h (0 Bft)
14.11.2015 20:35 5,4 C 3,6 C 79 % 1024,9 hPa 0,0 mm 0,0 km/h (0 Bft) W-SW 247 2,1 C 0,0 km/h (0 Bft)
14.11.2015 20:40 5,3 C 3,6 C 77 % 1024,9 hPa 0,0 mm 0,0 km/h (0 Bft) W-SW 247 1,6 C 0,0 km/h (0 Bft)
14.11.2015 20:45 5,3 C 3,5 C 79 % 1024,9 hPa 0,0 mm 0,0 km/h (0 Bft) W-SW 247 2,0 C 0,0 km/h (0 Bft)
14.11.2015 20:50 5,2 C 3,5 C 79 % 1024,6 hPa 0,0 mm 0,0 km/h (0 Bft) W-SW 247 1,9 C 0,0 km/h (0 Bft)
14.11.2015 20:53 5,2 C 3,5 C 79 % 1024,6 hPa 0,0 mm 0,0 km/h (0 Bft) W-SW 247 1,9 C 0,0 km/h (0 Bft)
14.11.2015 20:55 5,1 C 3,4 C 78 % 1024,6 hPa 0,0 mm 0,0 km/h (0 Bft) W-SW 247 1,6 C 0,0 km/h (0 Bft)
14.11.2015 21:00 5,0 C 3,3 C 78 % 1024,6 hPa 0,0 mm 0,0 km/h (0 Bft) W-SW 247 1,5 C 0,0 km/h (0 Bft)
14.11.2015 21:05 5,1 C 3,4 C 79 % 1024,6 hPa 0,0 mm 0,0 km/h (0 Bft) W-SW 247 1,8 C 0,0 km/h (0 Bft)
14.11.2015 21:10 5,0 C 3,3 C 79 % 1024,6 hPa 0,0 mm 0,0 km/h (0 Bft) W-SW 247 1,7 C 0,0 km/h (0 Bft)
14.11.2015 21:15 5,1 C 3,4 C 79 % 1024,6 hPa 0,0 mm 0,0 km/h (0 Bft) W-SW 247 1,8 C 0,0 km/h (0 Bft)
14.11.2015 21:20 5,1 C 3,4 C 79 % 1024,6 hPa 0,0 mm 0,0 km/h (0 Bft) W-SW 247 1,8 C 0,0 km/h (0 Bft)
14.11.2015 21:25 5,2 C 3,5 C 80 % 1024,6 hPa 0,0 mm 0,0 km/h (0 Bft) W-SW 247 2,0 C 0,0 km/h (0 Bft)
14.11.2015 21:30 5,1 C 3,4 C 80 % 1024,4 hPa 0,0 mm 0,0 km/h (0 Bft) W-SW 247 1,9 C 0,0 km/h (0 Bft)
14.11.2015 21:35 5,1 C 3,4 C 80 % 1024,4 hPa 0,0 mm 0,0 km/h (0 Bft) W-SW 247 1,9 C 0,0 km/h (0 Bft)
14.11.2015 21:40 5,0 C 3,3 C 81 % 1024,4 hPa 0,0 mm 0,0 km/h (0 Bft) W-SW 247 2,0 C 0,0 km/h (0 Bft)
14.11.2015 21:45 5,0 C 3,3 C 81 % 1024,4 hPa 0,0 mm 0,0 km/h (0 Bft) W-SW 247 2,0 C 0,0 km/h (0 Bft)
14.11.2015 21:50 5,1 C 3,4 C 81 % 1023,9 hPa 0,0 mm 0,0 km/h (0 Bft) W-SW 247 2,1 C 0,0 km/h (0 Bft)
14.11.2015 21:55 5,2 C 3,5 C 81 % 1023,9 hPa 0,0 mm 0,0 km/h (0 Bft) W-SW 247 2,2 C 0,0 km/h (0 Bft)
14.11.2015 22:00 5,3 C 3,5 C 81 % 1023,9 hPa 0,0 mm 0,0 km/h (0 Bft) W-SW 247 2,3 C 0,0 km/h (0 Bft)
14.11.2015 22:05 5,4 C 3,6 C 81 % 1023,9 hPa 0,0 mm 0,0 km/h (0 Bft) W-SW 247 2,4 C 0,0 km/h (0 Bft)
14.11.2015 22:10 5,5 C 3,7 C 80 % 1024,0 hPa 0,0 mm 0,0 km/h (0 Bft) W-SW 247 2,3 C 0,0 km/h (0 Bft)
14.11.2015 22:15 5,5 C 3,7 C 80 % 1024,0 hPa 0,0 mm 0,0 km/h (0 Bft) W-SW 247 2,3 C 0,0 km/h (0 Bft)
14.11.2015 22:20 5,8 C 3,9 C 80 % 1024,0 hPa 0,0 mm 0,0 km/h (0 Bft) W-SW 247 2,6 C 0,0 km/h (0 Bft)
14.11.2015 22:25 5,7 C 3,8 C 79 % 1024,0 hPa 0,0 mm 0,0 km/h (0 Bft) W-SW 247 2,3 C 0,0 km/h (0 Bft)
14.11.2015 22:30 5,9 C 3,9 C 79 % 1023,7 hPa 0,0 mm 0,0 km/h (0 Bft) W-SW 247 2,5 C 0,0 km/h (0 Bft)
14.11.2015 22:35 6,0 C 4,0 C 78 % 1023,7 hPa 0,0 mm 0,0 km/h (0 Bft) W-SW 247 2,5 C 0,0 km/h (0 Bft)
14.11.2015 22:40 6,1 C 4,1 C 78 % 1023,7 hPa 0,0 mm 0,0 km/h (0 Bft) W-SW 247 2,6 C 0,0 km/h (0 Bft)
14.11.2015 22:45 6,1 C 4,1 C 77 % 1023,7 hPa 0,0 mm 0,0 km/h (0 Bft) W-SW 247 2,4 C 0,0 km/h (0 Bft)
14.11.2015 22:50 6,2 C 4,1 C 77 % 1023,1 hPa 0,0 mm 0,0 km/h (0 Bft) W-SW 247 2,5 C 0,0 km/h (0 Bft)
14.11.2015 22:55 6,2 C 4,1 C 76 % 1023,1 hPa 0,0 mm 0,0 km/h (0 Bft) W-SW 247 2,3 C 0,0 km/h (0 Bft)
14.11.2015 23:00 6,0 C 4,0 C 76 % 1023,1 hPa 0,0 mm 0,0 km/h (0 Bft) W-SW 247 2,1 C 0,0 km/h (0 Bft)
14.11.2015 23:05 6,0 C 4,0 C 76 % 1023,1 hPa 0,0 mm 0,0 km/h (0 Bft) W-SW 247 2,1 C 0,0 km/h (0 Bft)
14.11.2015 23:10 6,1 C 4,1 C 75 % 1022,5 hPa 0,0 mm 0,0 km/h (0 Bft) W-SW 247 2,0 C 0,0 km/h (0 Bft)
14.11.2015 23:15 6,2 C 4,1 C 75 % 1022,5 hPa 0,0 mm 0,0 km/h (0 Bft) W-SW 247 2,1 C 0,0 km/h (0 Bft)
14.11.2015 23:20 6,0 C 4,0 C 74 % 1022,5 hPa 0,0 mm 0,0 km/h (0 Bft) W-SW 247 1,7 C 0,0 km/h (0 Bft)
14.11.2015 23:25 5,7 C 3,8 C 76 % 1022,5 hPa 0,0 mm 0,0 km/h (0 Bft) W-SW 247 1,8 C 0,0 km/h (0 Bft)
14.11.2015 23:30 5,5 C 3,7 C 76 % 1022,7 hPa 0,0 mm 0,0 km/h (0 Bft) W-SW 247 1,6 C 0,0 km/h (0 Bft)
14.11.2015 23:35 5,5 C 3,7 C 76 % 1022,7 hPa 0,0 mm 0,0 km/h (0 Bft) W-SW 247 1,6 C 0,0 km/h (0 Bft)
14.11.2015 23:40 5,4 C 3,6 C 76 % 1022,7 hPa 0,0 mm 0,0 km/h (0 Bft) W-SW 247 1,5 C 0,0 km/h (0 Bft)
14.11.2015 23:45 5,4 C 3,6 C 76 % 1022,7 hPa 0,0 mm 0,0 km/h (0 Bft) W-SW 247 1,5 C 0,0 km/h (0 Bft)
14.11.2015 23:50 5,4 C 3,6 C 76 % 1022,5 hPa 0,0 mm 0,0 km/h (0 Bft) W-SW 247 1,5 C 0,0 km/h (0 Bft)
14.11.2015 23:55 5,5 C 3,7 C 76 % 1022,5 hPa 0,0 mm 0,0 km/h (0 Bft) W-SW 247 1,6 C 0,0 km/h (0 Bft)
_ Min-Zeit 21:45 21:45 15:05 23:55 - 23:55 - - 16:20 23:55
Minimum _ 5,0 C 3,3 C 64 % 1022,5 hPa - 0,0 km/h (0 Bft) - - 0,9 C 0,0 km/h (0 Bft)
_ Max-Zeit 01:30 01:30 03:50 11:45 03:30 23:55 - - 01:10 23:55
Maximum _ 10,2 C 6,8 C 85 % 1028,4 hPa 0,7 mm 0,0 km/h
W-SW (0 Bft)
- - 5,6 C 0,0 km/h
W-SW (0 Bft)
Durchschnitt _ 7,4 C 5,0 C 74 % 1026,5 hPa #0,7 mm 0,0 km/h (0 Bft) - - - 3,0 C 0,0 km/h (0 Bft)